Time;durP1;ratioP1;P1;durP2;ratioP2;P2;SDS_P1;SDS_P2;PMS_P1;PMS_P2;Temp;Humidity;BMP_temperature;BMP_pressure;BME280_temperature;BME280_humidity;BME280_pressure;Samples;Min_cycle;Max_cycle;Signal;HPM_P1;HPM_P2
2021/07/05 00:00:00;;;;;;;4.63;4.22;;;;;;;22.35;75.18;100057.81;4906746;28;102281;-60
2021/07/05 00:02:29;;;;;;;5.20;4.70;;;;;;;22.34;75.50;100058.19;4911864;28;102630;-60
2021/07/05 00:04:56;;;;;;;4.93;4.53;;;;;;;22.34;75.07;100047.09;4914427;28;102350;-60
2021/07/05 00:07:24;;;;;;;4.97;4.57;;;;;;;22.34;75.08;100036.03;4913379;28;103669;-59
2021/07/05 00:09:50;;;;;;;4.40;4.03;;;;;;;22.33;75.25;100024.13;4892483;28;102247;-59
2021/07/05 00:12:17;;;;;;;4.72;4.32;;;;;;;22.33;75.30;100018.59;4906365;28;102740;-60
2021/07/05 00:14:43;;;;;;;4.78;4.38;;;;;;;22.33;75.24;100015.03;4909363;28;103379;-59
2021/07/05 00:17:11;;;;;;;4.90;4.50;;;;;;;22.31;75.36;99998.75;4913132;28;103895;-60
2021/07/05 00:19:43;;;;;;;4.40;4.10;;;;;;;22.33;75.30;99992.84;4907020;28;102634;-59
2021/07/05 00:22:09;;;;;;;4.85;4.45;;;;;;;22.31;75.40;99993.19;4903749;28;102683;-60
2021/07/05 00:24:36;;;;;;;4.55;4.25;;;;;;;22.32;75.37;99983.69;4915428;28;103386;-60
2021/07/05 00:27:03;;;;;;;4.60;4.20;;;;;;;22.31;75.38;99960.72;4907628;28;103954;-60
2021/07/05 00:29:43;;;;;;;5.10;4.60;;;;;;;22.30;75.38;99950.03;4908628;28;102087;-60
2021/07/05 00:32:11;;;;;;;5.20;4.63;;;;;;;22.28;75.58;99942.06;4905635;28;102169;-60
2021/07/05 00:34:37;;;;;;;4.88;4.50;;;;;;;22.28;75.57;99933.75;4909387;28;102520;-60
2021/07/05 00:37:06;;;;;;;4.72;4.32;;;;;;;22.28;75.25;99939.28;4906535;28;103954;-60
2021/07/05 00:39:33;;;;;;;;;;;;;;;22.27;75.47;99925.81;4909263;28;102249;-60
2021/07/05 00:42:00;;;;;;;5.03;4.63;;;;;;;22.28;75.44;99944.84;4904138;28;102942;-60
2021/07/05 00:44:27;;;;;;;4.43;4.03;;;;;;;22.28;75.43;99950.38;4922205;28;102699;-61
2021/07/05 00:46:53;;;;;;;5.22;4.70;;;;;;;22.29;75.41;99956.75;4906431;28;104855;-60
2021/07/05 00:49:20;;;;;;;5.90;4.55;;;;;;;22.31;75.39;99955.19;4906169;28;102641;-59
2021/07/05 00:51:46;;;;;;;5.13;4.63;;;;;;;22.33;75.64;99956.81;4907142;28;103251;-60
2021/07/05 00:54:15;;;;;;;4.60;4.20;;;;;;;22.30;75.44;99950.81;4907243;28;102329;-59
2021/07/05 00:56:42;;;;;;;5.00;4.50;;;;;;;22.30;75.42;99959.13;4905649;28;104435;-59
2021/07/05 00:59:10;;;;;;;4.80;4.30;;;;;;;22.31;75.67;99955.19;4920169;28;102366;-59
2021/07/05 01:01:37;;;;;;;4.97;4.57;;;;;;;22.32;75.40;99955.97;4910435;28;102454;-60
2021/07/05 01:04:04;;;;;;;4.18;3.88;;;;;;;22.29;75.23;99952.00;4907298;28;102794;-60
2021/07/05 01:06:31;;;;;;;5.15;4.75;;;;;;;22.31;75.32;99954.38;4904829;28;104057;-60
2021/07/05 01:08:58;;;;;;;4.68;4.28;;;;;;;22.32;75.41;99955.97;4912290;28;102322;-60
2021/07/05 01:11:26;;;;;;;4.57;4.28;;;;;;;22.33;75.21;99948.50;4907577;28;102253;-60
2021/07/05 01:13:53;;;;;;;4.57;4.20;;;;;;;22.33;75.49;99951.28;4905724;28;102781;-59
2021/07/05 01:16:20;;;;;;;4.35;4.05;;;;;;;22.32;75.70;99944.91;4907378;28;104025;-60
2021/07/05 01:18:46;;;;;;;4.57;4.18;;;;;;;22.33;75.41;99946.53;4908094;28;102776;-60
2021/07/05 01:21:14;;;;;;;4.68;4.35;;;;;;;22.30;75.38;99934.19;4909144;28;102707;-60
2021/07/05 01:23:41;;;;;;;4.43;4.13;;;;;;;22.32;75.20;99931.03;4907138;28;103796;-60
2021/07/05 01:26:07;;;;;;;5.18;4.68;;;;;;;22.32;75.44;99933.81;4905716;28;104229;-59
2021/07/05 01:28:34;;;;;;;4.68;4.28;;;;;;;22.31;75.48;99938.56;4911031;28;102658;-59
2021/07/05 01:31:01;;;;;;;4.68;4.20;;;;;;;22.32;75.34;99939.34;4905700;28;102047;-59
2021/07/05 01:33:28;;;;;;;4.67;4.27;;;;;;;22.34;75.14;99933.47;4906263;28;102425;-60
2021/07/05 01:35:55;;;;;;;4.82;4.43;;;;;;;22.30;75.52;99927.84;4904600;28;104038;-60
2021/07/05 01:38:23;;;;;;;5.03;4.63;;;;;;;22.29;75.40;99924.28;4912143;28;102812;-59
2021/07/05 01:40:53;;;;;;;;;;;;;;;22.28;75.46;99911.56;4903685;28;102569;-59
2021/07/05 01:43:21;;;;;;;4.45;4.05;;;;;;;22.29;75.64;99902.09;4907012;28;102858;-60
2021/07/05 01:45:48;;;;;;;4.50;4.13;;;;;;;22.29;75.59;99899.34;4904865;28;103967;-59
2021/07/05 01:48:14;;;;;;;5.13;4.72;;;;;;;22.27;75.44;99887.81;4906498;28;102454;-59
2021/07/05 01:50:41;;;;;;;4.57;4.15;;;;;;;22.25;75.61;99870.75;4909799;28;104336;-59
2021/07/05 01:53:08;;;;;;;5.03;4.63;;;;;;;22.27;75.44;99853.75;4906081;28;102720;-59
2021/07/05 01:55:36;;;;;;;4.63;4.22;;;;;;;22.26;75.49;99855.72;4900128;28;103963;-60
2021/07/05 01:58:05;;;;;;;4.97;4.57;;;;;;;22.27;75.42;99859.28;4905050;28;103133;-59
2021/07/05 02:00:32;;;;;;;4.55;4.15;;;;;;;22.28;75.54;99860.88;4904500;28;104838;-59
2021/07/05 02:03:00;;;;;;;4.78;4.30;;;;;;;22.28;75.49;99858.91;4905453;28;102135;-59
2021/07/05 02:05:27;;;;;;;5.05;4.65;;;;;;;22.26;75.49;99852.97;4910243;28;104023;-60
2021/07/05 02:07:56;;;;;;;4.45;4.15;;;;;;;22.27;75.44;99857.31;4903125;28;102490;-60
2021/07/05 02:10:26;;;;;;;5.10;4.70;;;;;;;22.28;75.64;99856.13;4906830;28;102500;-59
2021/07/05 02:12:56;;;;;;;4.85;4.32;;;;;;;22.31;75.54;99849.84;4903489;28;102371;-60
2021/07/05 02:15:24;;;;;;;4.25;3.88;;;;;;;22.29;75.29;99851.44;4907027;28;103868;-61
2021/07/05 02:17:51;;;;;;;4.40;4.10;;;;;;;22.26;75.53;99858.50;4905218;28;102193;-59
2021/07/05 02:20:21;;;;;;;4.72;4.32;;;;;;;22.31;75.63;99860.16;4904839;28;102300;-60
2021/07/05 02:22:51;;;;;;;4.60;4.20;;;;;;;22.29;75.46;99860.53;4921141;28;102661;-60
2021/07/05 02:25:20;;;;;;;4.70;4.30;;;;;;;22.28;75.26;99860.88;4930925;28;103929;-59
2021/07/05 02:27:48;;;;;;;4.65;4.35;;;;;;;22.25;75.49;99856.91;4911398;28;102761;-60
2021/07/05 02:30:19;;;;;;;4.90;4.50;;;;;;;22.26;75.61;99864.03;4909261;28;102315;-60
2021/07/05 02:32:46;;;;;;;5.85;4.40;;;;;;;22.29;75.58;99868.06;4913913;28;102110;-59
2021/07/05 02:35:17;;;;;;;4.82;4.43;;;;;;;22.26;75.67;99863.25;4920086;28;104563;-59
2021/07/05 02:37:45;;;;;;;4.78;4.38;;;;;;;22.27;75.65;99860.09;4930487;28;102144;-60
2021/07/05 02:40:14;;;;;;;4.68;4.38;;;;;;;22.29;75.23;99868.84;4910555;28;102487;-60
2021/07/05 02:42:43;;;;;;;4.45;4.10;;;;;;;22.27;75.63;99881.47;4914364;28;102338;-59
2021/07/05 02:45:16;;;;;;;4.20;3.90;;;;;;;22.27;75.44;99890.56;4906353;28;103885;-59
2021/07/05 02:47:44;;;;;;;4.47;4.18;;;;;;;22.27;75.36;99907.22;4906249;28;102764;-62
2021/07/05 02:50:11;;;;;;;4.87;4.57;;;;;;;22.29;75.20;99918.75;4896364;28;102664;-59
2021/07/05 02:52:38;;;;;;;4.78;4.32;;;;;;;22.29;75.20;99926.25;4909471;28;102622;-59
2021/07/05 02:55:08;;;;;;;4.80;4.40;;;;;;;22.27;75.60;99934.94;4905699;28;104082;-59
2021/07/05 02:57:35;;;;;;;4.20;3.90;;;;;;;22.28;75.45;99932.94;4905850;28;102137;-59
2021/07/05 03:00:10;;;;;;;4.43;4.00;;;;;;;22.28;75.40;99927.41;4902575;28;102599;-60
2021/07/05 03:02:37;;;;;;;4.70;4.30;;;;;;;22.26;75.65;99919.47;4901640;28;102254;-60
2021/07/05 03:05:08;;;;;;;5.00;4.60;;;;;;;22.26;75.71;99913.94;4904699;28;103125;-59
2021/07/05 03:07:35;;;;;;;5.32;4.82;;;;;;;22.25;75.77;99917.06;4911304;28;102539;-59
2021/07/05 03:10:04;;;;;;;4.85;4.45;;;;;;;22.25;75.39;99912.34;4909574;28;102060;-60
2021/07/05 03:12:30;;;;;;;5.00;4.60;;;;;;;22.26;75.28;99921.44;4908077;28;103191;-60
2021/07/05 03:14:57;;;;;;;4.45;4.15;;;;;;;22.26;75.37;99925.03;4908157;28;104151;-62
2021/07/05 03:17:24;;;;;;;4.70;4.30;;;;;;;22.26;75.14;99930.56;4909843;28;102511;-60
2021/07/05 03:19:51;;;;;;;5.13;4.70;;;;;;;22.24;75.33;99943.19;4908102;28;102005;-60
2021/07/05 03:22:18;;;;;;;4.63;4.22;;;;;;;22.27;75.37;99942.44;4915353;28;102171;-59
2021/07/05 03:24:45;;;;;;;4.65;4.35;;;;;;;22.26;75.38;99949.97;4914511;28;104122;-60
2021/07/05 03:27:12;;;;;;;4.70;4.18;;;;;;;22.26;75.25;99951.94;4910242;28;102700;-60
2021/07/05 03:29:39;;;;;;;4.90;4.50;;;;;;;22.27;75.08;99972.94;4907765;28;102491;-59
2021/07/05 03:32:07;;;;;;;5.78;4.57;;;;;;;22.28;75.12;99985.63;4910546;28;102204;-60
2021/07/05 03:34:34;;;;;;;5.47;4.57;;;;;;;22.27;75.13;100003.41;4913931;28;103827;-59
2021/07/05 03:37:01;;;;;;;4.35;4.05;;;;;;;22.26;75.25;100015.69;4909463;28;102544;-61
2021/07/05 03:39:29;;;;;;;4.93;4.60;;;;;;;22.26;75.37;100013.72;4901656;28;102574;-59
2021/07/05 03:41:57;;;;;;;4.93;4.43;;;;;;;22.26;75.33;100033.13;4910819;28;102216;-60
2021/07/05 03:44:24;;;;;;;4.00;3.70;;;;;;;22.26;75.37;100044.19;4911331;28;103385;-59
2021/07/05 03:46:50;;;;;;;4.50;4.10;;;;;;;22.24;75.51;100043.75;4918728;28;102265;-60
2021/07/05 03:49:18;;;;;;;4.40;4.10;;;;;;;22.25;75.29;100056.47;4909242;28;102344;-59
2021/07/05 03:51:46;;;;;;;4.68;4.28;;;;;;;22.25;75.55;100064.78;4906509;28;102749;-59
2021/07/05 03:54:12;;;;;;;4.88;4.28;;;;;;;22.25;75.27;100064.78;4908601;28;103902;-59
2021/07/05 03:56:41;;;;;;;4.47;4.07;;;;;;;22.25;75.65;100072.25;4909644;28;102078;-60
2021/07/05 03:59:07;;;;;;;4.90;4.40;;;;;;;22.23;75.76;100067.09;4908628;28;102450;-60
2021/07/05 04:01:35;;;;;;;4.63;4.20;;;;;;;22.20;75.43;100003.28;4912673;28;102759;-59
2021/07/05 04:04:02;;;;;;;4.35;4.03;;;;;;;22.21;75.41;99975.19;4908266;28;103928;-60
2021/07/05 04:06:28;;;;;;;4.32;3.92;;;;;;;22.20;75.28;99964.50;4914228;28;102341;-60
2021/07/05 04:08:57;;;;;;;4.25;3.95;;;;;;;22.20;75.53;99973.59;4913703;28;102622;-60
2021/07/05 04:11:25;;;;;;;4.40;4.10;;;;;;;22.21;75.41;99957.78;4913411;28;102108;-60
2021/07/05 04:13:53;;;;;;;4.68;4.10;;;;;;;22.21;75.52;99955.78;4907381;28;104077;-59
2021/07/05 04:16:20;;;;;;;4.95;4.55;;;;;;;22.20;75.64;99943.13;4908455;28;102763;-59
2021/07/05 04:18:47;;;;;;;4.22;3.92;;;;;;;22.20;75.40;99929.25;4906979;28;105687;-60
2021/07/05 04:21:13;;;;;;;4.53;4.13;;;;;;;22.22;75.33;99926.94;4908134;28;102151;-59
2021/07/05 04:23:40;;;;;;;4.38;4.07;;;;;;;22.21;75.39;99922.53;4907221;28;103862;-59
2021/07/05 04:26:06;;;;;;;4.65;4.25;;;;;;;22.22;75.35;99924.16;4908175;28;102235;-59
2021/07/05 04:28:33;;;;;;;4.53;4.10;;;;;;;22.22;75.47;99926.94;4908461;28;102066;-60
2021/07/05 04:31:01;;;;;;;4.28;3.90;;;;;;;22.22;75.31;99924.16;4910345;28;102757;-59
2021/07/05 04:33:28;;;;;;;5.47;4.10;;;;;;;22.24;75.62;99932.09;4905116;28;103893;-59
2021/07/05 04:35:55;;;;;;;4.30;4.00;;;;;;;22.21;75.56;99919.75;4906688;28;102244;-59
2021/07/05 04:38:22;;;;;;;4.40;4.00;;;;;;;22.21;75.40;99908.69;4907908;28;102574;-59
2021/07/05 04:40:49;;;;;;;4.60;4.20;;;;;;;22.21;75.42;99910.66;4913716;28;102463;-59
2021/07/05 04:43:15;;;;;;;4.13;3.72;;;;;;;22.22;75.40;99904.75;4906000;28;104130;-59
2021/07/05 04:45:45;;;;;;;4.53;4.13;;;;;;;22.21;75.50;99894.81;4909100;28;102319;-59
2021/07/05 04:48:13;;;;;;;4.40;4.10;;;;;;;22.21;75.59;99886.50;4913779;28;102487;-59
2021/07/05 04:50:40;;;;;;;3.90;3.60;;;;;;;22.19;75.35;99877.78;4907837;28;102504;-59
2021/07/05 04:53:06;;;;;;;4.10;3.80;;;;;;;22.20;75.23;99871.06;4906144;28;103881;-59
2021/07/05 04:55:33;;;;;;;4.00;3.70;;;;;;;22.19;75.62;99858.38;4913685;28;102461;-59
2021/07/05 04:58:01;;;;;;;4.47;4.10;;;;;;;22.20;75.26;99864.72;4909159;28;102111;-59
2021/07/05 05:00:30;;;;;;;4.50;4.20;;;;;;;22.18;75.47;99858.72;4906225;28;102278;-59
2021/07/05 05:02:59;;;;;;;4.32;4.03;;;;;;;22.19;75.73;99866.69;4906858;28;103911;-59
2021/07/05 05:05:28;;;;;;;4.50;4.20;;;;;;;22.16;75.58;99864.66;4909758;28;103459;-59
2021/07/05 05:07:54;;;;;;;4.30;4.00;;;;;;;22.19;75.57;99879.75;4900983;28;102492;-59
2021/07/05 05:10:21;;;;;;;4.60;4.22;;;;;;;22.18;75.46;99880.91;4908874;28;102541;-59
2021/07/05 05:12:49;;;;;;;5.45;4.63;;;;;;;22.19;75.56;99858.38;4930543;28;103973;-59
2021/07/05 05:15:17;;;;;;;4.32;3.97;;;;;;;22.21;75.36;99839.41;4906021;28;102332;-59
2021/07/05 05:17:44;;;;;;;;;;;;;;;22.18;75.57;99845.69;4906185;28;102324;-59
2021/07/05 05:20:19;;;;;;;4.80;4.40;;;;;;;22.17;75.48;99846.84;4911460;28;103223;-59
2021/07/05 05:22:49;;;;;;;4.80;4.40;;;;;;;22.19;75.67;99844.53;4901240;28;103944;-59
2021/07/05 05:25:17;;;;;;;4.75;4.35;;;;;;;22.19;75.59;99847.28;4897779;28;102488;-59
2021/07/05 05:27:44;;;;;;;4.30;4.00;;;;;;;22.19;75.44;99852.84;4905359;28;102060;-60
2021/07/05 05:30:14;;;;;;;5.25;4.47;;;;;;;22.20;75.63;99839.78;4919524;28;102579;-59
2021/07/05 05:32:41;;;;;;;4.05;3.75;;;;;;;22.19;75.65;99827.91;4907116;28;104030;-59
2021/07/05 05:35:08;;;;;;;4.10;3.80;;;;;;;22.21;75.65;99839.41;4907587;28;102757;-59
2021/07/05 05:37:37;;;;;;;4.80;4.40;;;;;;;22.17;75.59;99833.00;4903797;28;103170;-59
2021/07/05 05:40:07;;;;;;;4.65;4.25;;;;;;;22.19;75.47;99833.44;4907653;28;103126;-59
2021/07/05 05:42:33;;;;;;;4.57;4.18;;;;;;;22.20;75.49;99848.09;4917266;28;103270;-59
2021/07/05 05:45:00;;;;;;;4.80;4.40;;;;;;;22.17;75.53;99843.28;4910044;28;102185;-59
2021/07/05 05:47:26;;;;;;;4.20;3.90;;;;;;;22.17;75.52;99866.25;4905840;28;102362;-59
2021/07/05 05:49:53;;;;;;;4.75;4.40;;;;;;;22.16;75.79;99875.75;4908163;28;102165;-59
2021/07/05 05:52:20;;;;;;;4.20;3.90;;;;;;;22.16;75.72;99880.50;4902351;28;103859;-59
2021/07/05 05:54:46;;;;;;;4.13;3.83;;;;;;;22.16;75.76;99875.75;4905733;28;103219;-60
2021/07/05 05:57:28;;;;;;;4.28;3.67;;;;;;;22.18;75.77;99867.03;4905373;28;102530;-59
2021/07/05 05:59:57;;;;;;;4.45;4.07;;;;;;;22.17;75.66;99855.16;4898798;28;102449;-59
2021/07/05 06:02:25;;;;;;;4.10;3.80;;;;;;;22.17;75.73;99852.41;4907808;28;103583;-59
2021/07/05 06:04:52;;;;;;;4.50;4.20;;;;;;;22.14;75.83;99839.28;4905690;28;102420;-59
2021/07/05 06:07:18;;;;;;;4.60;4.20;;;;;;;22.14;75.65;99853.13;4904133;28;102550;-59
2021/07/05 06:09:45;;;;;;;4.50;4.20;;;;;;;22.15;75.75;99860.28;4903379;28;102296;-59
2021/07/05 06:12:14;;;;;;;4.47;4.10;;;;;;;22.15;75.62;99856.72;4900800;28;103917;-59
2021/07/05 06:14:41;;;;;;;4.13;3.72;;;;;;;22.17;75.63;99848.81;4907828;28;103008;-59
2021/07/05 06:17:07;;;;;;;4.20;3.90;;;;;;;22.15;75.85;99835.34;4906584;28;102467;-59
2021/07/05 06:19:34;;;;;;;4.50;4.10;;;;;;;22.14;75.82;99833.72;4906999;28;102466;-59
2021/07/05 06:22:02;;;;;;;4.25;3.92;;;;;;;22.14;75.67;99827.38;4903689;28;103224;-59
2021/07/05 06:24:29;;;;;;;4.38;3.97;;;;;;;22.15;75.81;99840.09;4908905;28;102750;-59
2021/07/05 06:26:56;;;;;;;4.30;4.00;;;;;;;22.14;75.75;99842.03;4920859;28;102579;-59
2021/07/05 06:29:24;;;;;;;4.20;3.80;;;;;;;22.15;76.04;99835.34;4943149;28;102848;-59
2021/07/05 06:31:51;;;;;;;4.47;4.07;;;;;;;22.16;75.82;99831.41;4901848;28;103988;-59
2021/07/05 06:34:18;;;;;;;4.10;3.80;;;;;;;22.15;75.54;99838.13;4904916;28;102416;-59
2021/07/05 06:36:45;;;;;;;4.15;3.83;;;;;;;22.17;75.79;99838.53;4903592;28;103247;-59
2021/07/05 06:39:12;;;;;;;4.20;3.85;;;;;;;22.15;75.65;99835.34;4904928;28;102635;-59
2021/07/05 06:41:38;;;;;;;3.85;3.55;;;;;;;22.17;75.61;99833.00;4903422;28;103550;-59
2021/07/05 06:44:05;;;;;;;4.35;3.95;;;;;;;22.18;75.73;99842.94;4904169;28;102347;-62
2021/07/05 06:46:33;;;;;;;4.00;3.70;;;;;;;22.18;75.60;99842.09;4903813;28;102717;-60
2021/07/05 06:48:59;;;;;;;4.20;3.90;;;;;;;22.20;75.56;99843.34;4905770;28;102217;-60
2021/07/05 06:51:26;;;;;;;4.03;3.72;;;;;;;22.18;75.70;99845.69;4916942;28;103655;-59
2021/07/05 06:53:52;;;;;;;4.65;4.25;;;;;;;22.21;75.66;99853.25;4916968;28;102350;-60
2021/07/05 06:56:19;;;;;;;3.60;3.30;;;;;;;22.21;75.62;99849.69;4900462;28;102507;-59
2021/07/05 06:58:46;;;;;;;4.00;3.70;;;;;;;22.24;75.48;99854.50;4905009;28;102849;-59
2021/07/05 07:01:12;;;;;;;3.90;3.60;;;;;;;22.22;75.43;99848.53;4901376;28;103356;-59
2021/07/05 07:03:40;;;;;;;3.63;3.33;;;;;;;22.23;75.47;99848.16;4905538;28;102154;-59
2021/07/05 07:06:07;;;;;;;4.10;3.80;;;;;;;22.27;75.23;99848.22;4903104;28;104547;-58
2021/07/05 07:08:34;;;;;;;5.13;3.50;;;;;;;22.26;75.32;99850.19;4899751;28;102828;-59
2021/07/05 07:11:00;;;;;;;3.80;3.50;;;;;;;22.27;75.24;99854.56;4909763;28;104181;-59
2021/07/05 07:13:27;;;;;;;4.15;3.78;;;;;;;22.29;75.36;99866.06;4907821;28;103419;-59
2021/07/05 07:15:58;;;;;;;3.90;3.60;;;;;;;22.28;75.31;99860.88;4902199;28;102955;-59
2021/07/05 07:20:59;;;;;;;3.65;3.35;;;;;;;22.29;75.28;99868.06;4899403;28;103567;-59
2021/07/05 07:23:25;;;;;;;;;;;;;;;22.29;75.49;99863.31;4905633;28;102192;-59
2021/07/05 07:25:52;;;;;;;3.95;3.65;;;;;;;22.29;75.36;99868.84;4903756;28;103139;-59
2021/07/05 07:28:18;;;;;;;4.30;4.00;;;;;;;22.26;75.27;99869.59;4906293;28;102554;-59
2021/07/05 07:30:45;;;;;;;3.83;3.58;;;;;;;22.25;75.47;99868.00;4897324;28;103873;-59
2021/07/05 07:33:12;;;;;;;3.95;3.65;;;;;;;22.25;75.65;99862.44;4904763;28;102496;-59
2021/07/05 07:35:38;;;;;;;4.13;3.83;;;;;;;22.22;75.59;99857.66;4902589;28;102599;-59
2021/07/05 07:38:06;;;;;;;3.75;3.45;;;;;;;22.26;75.49;99875.13;4908482;28;102612;-59
2021/07/05 07:40:36;;;;;;;4.00;3.70;;;;;;;22.28;75.31;99878.31;4901794;28;104060;-59
2021/07/05 07:43:03;;;;;;;3.85;3.55;;;;;;;22.27;75.43;99876.72;4900415;28;103396;-59
2021/07/05 07:45:29;;;;;;;3.92;3.63;;;;;;;22.27;75.49;99882.25;4903245;28;103221;-59
2021/07/05 07:47:57;;;;;;;3.85;3.55;;;;;;;22.28;75.29;99883.84;4904136;28;102282;-59
2021/07/05 07:50:24;;;;;;;3.47;3.28;;;;;;;22.27;75.59;99885.03;4902405;28;104207;-59
2021/07/05 07:52:51;;;;;;;3.53;3.33;;;;;;;22.28;75.51;99883.84;4903696;28;102617;-59
2021/07/05 07:55:19;;;;;;;4.07;3.78;;;;;;;22.28;75.45;99889.41;4907494;28;102476;-59
2021/07/05 07:57:46;;;;;;;3.80;3.50;;;;;;;22.30;75.36;99886.28;4907661;28;102734;-59
2021/07/05 08:00:15;;;;;;;3.80;3.50;;;;;;;22.29;75.33;99895.78;4913311;28;102745;-60
2021/07/05 08:02:42;;;;;;;4.22;3.92;;;;;;;22.28;75.51;99892.16;4904120;28;102542;-59
2021/07/05 08:05:10;;;;;;;3.88;3.58;;;;;;;22.27;75.36;99896.13;4905527;28;102529;-59
2021/07/05 08:07:40;;;;;;;4.72;4.32;;;;;;;22.28;75.46;99892.16;4901234;28;102297;-59
2021/07/05 08:10:08;;;;;;;4.72;3.90;;;;;;;22.28;75.46;99900.50;4911516;28;103854;-60
2021/07/05 08:12:36;;;;;;;4.60;4.20;;;;;;;22.29;75.42;99901.31;4909168;28;102233;-59
2021/07/05 08:15:03;;;;;;;4.13;3.83;;;;;;;22.28;75.43;99889.41;4912801;28;103158;-59
2021/07/05 08:17:30;;;;;;;4.40;4.10;;;;;;;22.30;75.47;99894.59;4908921;28;102465;-62
2021/07/05 08:20:10;;;;;;;4.67;4.27;;;;;;;22.29;75.32;99891.03;4906212;28;104186;-59
2021/07/05 08:22:36;;;;;;;4.55;4.25;;;;;;;22.30;75.61;99887.06;4908683;28;103235;-59
2021/07/05 08:25:06;;;;;;;4.88;4.47;;;;;;;22.30;75.63;99887.06;4908204;28;102552;-59
2021/07/05 08:27:34;;;;;;;4.97;4.60;;;;;;;22.29;75.30;99879.94;4909909;28;103654;-59
2021/07/05 08:30:03;;;;;;;;;;;;;;;22.30;75.45;99875.97;4907319;28;102799;-59
2021/07/05 08:32:30;;;;;;;4.80;4.40;;;;;;;22.31;75.40;99880.34;4907718;28;102543;-59
2021/07/05 08:34:57;;;;;;;4.90;4.50;;;;;;;22.30;75.81;99875.97;4905258;28;102893;-59
2021/07/05 08:37:24;;;;;;;6.10;5.22;;;;;;;22.31;75.49;99874.00;4905333;28;102177;-59
2021/07/05 08:39:50;;;;;;;5.45;4.95;;;;;;;22.33;75.43;99874.44;4905310;28;103875;-59
2021/07/05 08:42:21;;;;;;;5.43;4.93;;;;;;;22.34;75.61;99864.16;4922929;28;102378;-59
2021/07/05 08:44:49;;;;;;;4.88;4.47;;;;;;;22.36;75.51;99862.63;4907491;28;102058;-60
2021/07/05 08:47:18;;;;;;;7.90;6.25;;;;;;;22.46;75.91;99873.06;4905446;28;102554;-59
2021/07/05 08:49:45;;;;;;;7.28;6.57;;;;;;;22.49;76.11;99865.97;4917113;28;102759;-59
2021/07/05 08:52:12;;;;;;;5.45;5.05;;;;;;;22.46;75.73;99861.16;4905187;28;102765;-59
2021/07/05 08:54:38;;;;;;;5.75;5.25;;;;;;;22.44;75.61;99863.53;4907915;28;102400;-59
2021/07/05 08:57:05;;;;;;;5.43;4.93;;;;;;;22.42;75.85;99863.09;4913834;28;102220;-59
2021/07/05 08:59:35;;;;;;;6.00;5.50;;;;;;;22.42;75.79;99872.22;4920694;28;103893;-59
2021/07/05 09:02:02;;;;;;;6.35;5.82;;;;;;;22.44;75.70;99869.06;4906376;28;102105;-59
2021/07/05 09:04:32;;;;;;;6.03;5.53;;;;;;;22.44;75.40;99869.06;4906401;28;102189;-60
2021/07/05 09:07:05;;;;;;;6.28;5.63;;;;;;;22.43;75.57;99867.47;4902447;28;102299;-60
2021/07/05 09:09:32;;;;;;;6.38;5.88;;;;;;;22.41;75.61;99862.28;4906384;28;104121;-60
2021/07/05 09:12:04;;;;;;;6.38;5.78;;;;;;;22.48;76.30;99869.94;4919016;28;102379;-60
2021/07/05 09:14:31;;;;;;;7.03;6.43;;;;;;;22.58;77.25;99868.50;4906321;28;102084;-59
2021/07/05 09:17:09;;;;;;;6.88;6.38;;;;;;;22.65;77.52;99869.41;4901249;28;103331;-59
2021/07/05 09:19:39;;;;;;;12.15;6.40;;;;;;;22.68;77.23;99879.72;4909974;28;104108;-59
2021/07/05 09:22:09;;;;;;;14.70;7.38;;;;;;;22.69;77.20;99875.81;4901803;28;102501;-59
2021/07/05 09:24:38;;;;;;;7.13;6.07;;;;;;;22.71;77.56;99870.66;4903132;28;104894;-58
2021/07/05 09:27:08;;;;;;;7.00;5.97;;;;;;;22.73;76.82;99871.09;4904565;28;102467;-64
2021/07/05 09:29:36;;;;;;;11.45;6.38;;;;;;;22.76;77.78;99880.66;4904997;28;103974;-63
2021/07/05 09:32:06;;;;;;;10.25;6.22;;;;;;;22.78;77.56;99878.28;4915463;28;102615;-57
2021/07/05 09:34:35;;;;;;;7.05;6.05;;;;;;;22.78;77.57;99876.31;4904736;28;102565;-58
2021/07/05 09:37:20;;;;;;;9.40;6.47;;;;;;;22.78;77.86;99887.41;4915286;28;102580;-60
2021/07/05 09:40:10;;;;;;;5.82;5.22;;;;;;;22.74;77.51;99883.78;4904736;28;104567;-60
2021/07/05 09:42:39;;;;;;;8.10;5.95;;;;;;;22.70;77.33;99880.16;4907003;28;103607;-60
2021/07/05 09:45:08;;;;;;;7.75;6.28;;;;;;;22.68;77.14;99885.28;4905371;28;102186;-60
2021/07/05 09:47:34;;;;;;;6.47;5.97;;;;;;;22.63;76.90;99874.50;4923408;28;102728;-60
2021/07/05 09:50:10;;;;;;;6.03;5.47;;;;;;;22.61;76.60;99868.56;4901306;28;103882;-60
2021/07/05 09:52:38;;;;;;;8.10;5.38;;;;;;;22.61;76.59;99867.72;4898916;28;102708;-60
2021/07/05 09:55:11;;;;;;;6.20;5.70;;;;;;;22.61;76.34;99874.09;4896302;28;102879;-60
2021/07/05 09:57:44;;;;;;;6.05;5.53;;;;;;;22.61;76.35;99879.66;4900738;28;102586;-60
2021/07/05 10:00:17;;;;;;;6.15;5.65;;;;;;;22.59;76.38;99876.44;4900149;28;103782;-60
2021/07/05 10:02:58;;;;;;;6.20;5.70;;;;;;;22.59;76.27;99867.31;4895330;28;102545;-60
2021/07/05 10:05:30;;;;;;;6.25;5.75;;;;;;;22.57;76.40;99866.88;4904359;28;102400;-60
2021/07/05 10:08:03;;;;;;;6.55;6.05;;;;;;;22.56;76.40;99860.53;4919343;28;102705;-60
2021/07/05 10:10:30;;;;;;;6.55;5.95;;;;;;;22.55;76.23;99858.94;4904957;28;103920;-60
2021/07/05 10:12:59;;;;;;;7.43;6.15;;;;;;;22.56;76.03;99863.31;4901829;28;102621;-60
2021/07/05 10:15:28;;;;;;;6.93;6.32;;;;;;;22.55;76.14;99861.72;4905507;28;102204;-60
2021/07/05 10:17:58;;;;;;;6.93;6.32;;;;;;;22.55;76.25;99861.72;4908319;28;102604;-60
2021/07/05 10:20:39;;;;;;;6.65;6.05;;;;;;;22.54;76.17;99851.81;4896660;28;103911;-60
2021/07/05 10:23:11;;;;;;;6.20;5.70;;;;;;;22.55;76.01;99853.41;4893030;28;103554;-60
2021/07/05 10:25:40;;;;;;;6.70;6.15;;;;;;;22.55;76.16;99851.44;4899873;28;102783;-60
2021/07/05 10:28:07;;;;;;;;;;;;;;;22.54;76.12;99847.06;4902362;28;102543;-60
2021/07/05 10:30:35;;;;;;;7.50;6.80;;;;;;;22.55;76.20;99847.84;4906332;28;104188;-60
2021/07/05 10:33:04;;;;;;;7.30;6.70;;;;;;;22.54;76.10;99846.28;4909902;28;102586;-60
2021/07/05 10:35:33;;;;;;;;;;;;;;;22.54;76.29;99835.19;4900900;28;102590;-60
2021/07/05 10:38:01;;;;;;;;;;;;;;;22.54;76.04;99840.72;4905162;28;102555;-61
2021/07/05 10:40:38;;;;;;;6.57;6.07;;;;;;;22.54;75.87;99840.72;4904526;28;103906;-60
2021/07/05 10:43:06;;;;;;;7.60;6.93;;;;;;;22.54;76.05;99840.72;4901055;28;103030;-60
2021/07/05 10:45:41;;;;;;;7.80;7.07;;;;;;;22.53;75.93;99834.34;4899935;28;103845;-60
2021/07/05 10:48:10;;;;;;;7.57;6.93;;;;;;;22.54;75.81;99840.72;4906766;28;103740;-60
2021/07/05 10:50:50;;;;;;;7.20;6.60;;;;;;;22.52;76.03;99832.75;4895452;28;103880;-60
2021/07/05 10:53:19;;;;;;;7.53;6.93;;;;;;;22.53;75.92;99839.09;4899081;28;102801;-60
2021/07/05 10:55:50;;;;;;;8.38;7.57;;;;;;;22.53;76.06;99831.56;4898547;28;102854;-60
2021/07/05 10:58:20;;;;;;;8.65;7.85;;;;;;;22.51;75.94;99831.16;4896013;28;102736;-60
2021/07/05 11:00:48;;;;;;;8.45;7.65;;;;;;;22.52;76.12;99834.75;4894521;28;103922;-60
2021/07/05 11:03:46;;;;;;;8.75;7.90;;;;;;;22.51;75.82;99833.94;4897516;28;103346;-60
2021/07/05 11:06:42;;;;;;;8.50;7.80;;;;;;;22.50;75.96;99834.28;4894362;28;103600;-60
2021/07/05 11:09:09;;;;;;;9.07;8.38;;;;;;;22.51;75.85;99833.94;4898369;28;103184;-60
2021/07/05 11:11:46;;;;;;;8.85;8.15;;;;;;;22.51;76.04;99830.38;4898946;28;104113;-60
2021/07/05 11:14:22;;;;;;;9.00;8.23;;;;;;;22.51;76.25;99822.06;4896426;28;102536;-60
2021/07/05 11:17:09;;;;;;;8.90;8.10;;;;;;;22.50;75.92;99832.34;4901142;28;102608;-59
2021/07/05 11:19:41;;;;;;;8.48;7.78;;;;;;;22.50;76.04;99820.44;4902974;28;103288;-61
2021/07/05 11:22:30;;;;;;;9.57;8.70;;;;;;;22.51;75.67;99819.28;4917826;23;104227;-83
2021/07/05 11:25:01;;;;;;;9.43;8.63;;;;;;;22.50;75.86;99820.44;4883440;28;103897;-82
2021/07/05 11:27:39;;;;;;;10.00;9.20;;;;;;;22.50;75.89;99814.88;4888685;28;102574;-83
2021/07/05 11:30:16;;;;;;;;;;;;;;;22.51;75.97;99808.19;4897380;28;102577;-82
2021/07/05 11:32:44;;;;;;;9.13;8.43;;;;;;;22.50;75.65;99821.25;4891475;28;103862;-82
2021/07/05 11:35:36;;;;;;;10.07;9.27;;;;;;;22.49;75.99;99821.63;4893881;28;102543;-81